Time;durP1;ratioP1;P1;durP2;ratioP2;P2;SDS_P1;SDS_P2;PMS_P1;PMS_P2;Temp;Humidity;BMP_temperature;BMP_pressure;BME280_temperature;BME280_humidity;BME280_pressure;Samples;Min_cycle;Max_cycle;Signal;HPM_P1;HPM_P2
2021/04/24 00:01:08;;;;;;;5.28;2.85;;;18.60;41.70;;;;;;6225006;28;20061;-79
2021/04/24 00:04:12;;;;;;;5.15;2.75;;;18.60;41.90;;;;;;6201778;28;20469;-78
2021/04/24 00:07:16;;;;;;;7.15;2.78;;;18.50;41.90;;;;;;6200875;28;20035;-79
2021/04/24 00:10:19;;;;;;;6.45;3.55;;;18.50;42.00;;;;;;6200694;28;20036;-79
2021/04/24 00:13:20;;;;;;;4.43;3.03;;;18.50;42.10;;;;;;6201442;28;20034;-78
2021/04/24 00:16:21;;;;;;;5.13;2.78;;;18.40;42.10;;;;;;6200351;28;20030;-79
2021/04/24 00:19:22;;;;;;;6.22;3.35;;;18.40;42.10;;;;;;6201262;28;20057;-79
2021/04/24 00:22:26;;;;;;;4.80;3.20;;;18.40;42.40;;;;;;6205088;28;20026;-79
2021/04/24 00:25:28;;;;;;;4.25;2.83;;;18.30;42.50;;;;;;6224448;28;20030;-79
2021/04/24 00:28:29;;;;;;;6.28;2.60;;;18.30;42.50;;;;;;6204369;28;20041;-78
2021/04/24 00:31:33;;;;;;;5.60;3.58;;;18.30;42.40;;;;;;6223683;28;20045;-79
2021/04/24 00:34:34;;;;;;;4.40;2.60;;;18.30;42.50;;;;;;6224296;28;20041;-79
2021/04/24 00:37:35;;;;;;;4.15;2.92;;;18.30;42.80;;;;;;6223979;28;20053;-78
2021/04/24 00:40:37;;;;;;;4.53;2.67;;;18.20;42.80;;;;;;6207052;28;20058;-78
2021/04/24 00:43:38;;;;;;;8.25;2.38;;;18.20;43.60;;;;;;6207320;28;20132;-78
2021/04/24 00:46:42;;;;;;;3.63;2.53;;;18.20;43.00;;;;;;6217839;28;20049;-79
2021/04/24 00:49:43;;;;;;;6.93;2.67;;;18.10;42.90;;;;;;6217279;28;20346;-79
2021/04/24 00:52:44;;;;;;;3.10;2.30;;;18.10;42.90;;;;;;6186102;28;20034;-79
2021/04/24 00:55:46;;;;;;;3.92;2.30;;;18.00;42.90;;;;;;6183825;28;20037;-78
2021/04/24 00:58:48;;;;;;;5.82;2.50;;;18.00;43.00;;;;;;6199737;28;20092;-79
2021/04/24 01:01:49;;;;;;;3.58;2.13;;;17.90;43.20;;;;;;6185341;28;20031;-78
2021/04/24 01:04:51;;;;;;;3.80;2.30;;;17.80;43.40;;;;;;6206837;28;20033;-79
2021/04/24 01:07:52;;;;;;;4.18;2.58;;;17.70;43.60;;;;;;6223336;28;20033;-78
2021/04/24 01:10:53;;;;;;;4.57;2.55;;;17.70;43.80;;;;;;6206843;28;20073;-78
2021/04/24 01:13:57;;;;;;;5.40;2.80;;;17.70;44.10;;;;;;6183602;28;20031;-78
2021/04/24 01:16:58;;;;;;;3.78;2.30;;;17.60;44.20;;;;;;6200735;28;20034;-77
2021/04/24 01:20:00;;;;;;;4.03;2.65;;;17.60;44.50;;;;;;6205267;28;20041;-78
2021/04/24 01:23:01;;;;;;;3.83;2.25;;;17.50;44.70;;;;;;6200616;28;20157;-78
2021/04/24 01:26:03;;;;;;;4.57;2.72;;;17.50;44.80;;;;;;6189934;28;20065;-79
2021/04/24 01:29:04;;;;;;;3.75;2.10;;;17.40;44.80;;;;;;6201251;28;20046;-80
2021/04/24 01:32:06;;;;;;;6.07;3.22;;;17.30;44.70;;;;;;6209454;28;20026;-79
2021/04/24 01:35:12;;;;;;;4.07;2.60;;;17.30;44.70;;;;;;6190228;28;20034;-80
2021/04/24 01:38:13;;;;;;;3.67;2.42;;;17.30;44.70;;;;;;6206455;28;20099;-78
2021/04/24 01:41:15;;;;;;;4.43;2.38;;;17.20;44.70;;;;;;6224878;28;20531;-79
2021/04/24 01:44:16;;;;;;;5.18;2.65;;;17.20;44.80;;;;;;6210866;28;20084;-77
2021/04/24 01:47:17;;;;;;;2.75;2.30;;;17.10;44.90;;;;;;6210303;28;20041;-78
2021/04/24 01:50:22;;;;;;;3.78;2.53;;;17.10;45.00;;;;;;6188801;28;20029;-78
2021/04/24 01:53:24;;;;;;;5.40;2.70;;;17.00;45.10;;;;;;6228012;28;20038;-79
2021/04/24 01:56:25;;;;;;;5.00;2.90;;;17.00;45.20;;;;;;6210562;28;20034;-79
2021/04/24 01:59:29;;;;;;;7.22;2.15;;;17.00;45.20;;;;;;6194366;28;20029;-78
2021/04/24 02:02:30;;;;;;;3.88;2.40;;;17.00;45.30;;;;;;6196642;28;20029;-79
2021/04/24 02:05:31;;;;;;;2.38;2.00;;;17.00;45.10;;;;;;6209865;28;20092;-79
2021/04/24 02:08:38;;;;;;;4.15;2.70;;;17.00;45.10;;;;;;6210436;28;20034;-79
2021/04/24 02:12:11;;;;;;;3.53;2.35;;;17.00;45.20;;;;;;6227941;28;20025;-78
2021/04/24 02:15:12;;;;;;;4.82;2.88;;;16.90;45.20;;;;;;6194264;28;20030;-80
2021/04/24 02:18:14;;;;;;;5.72;2.53;;;16.80;45.30;;;;;;6209885;28;20049;-79
2021/04/24 02:21:18;;;;;;;7.28;3.60;;;16.80;45.60;;;;;;6193592;28;20503;-78
2021/04/24 02:24:19;;;;;;;4.75;2.88;;;16.70;45.80;;;;;;6227129;28;20088;-78
2021/04/24 02:27:20;;;;;;;5.18;2.60;;;16.70;45.90;;;;;;6198796;28;20343;-79
2021/04/24 02:30:22;;;;;;;4.95;2.72;;;16.70;46.00;;;;;;6192339;28;20058;-80
2021/04/24 02:33:24;;;;;;;3.20;2.08;;;16.70;46.00;;;;;;6191322;28;20064;-78
2021/04/24 02:36:26;;;;;;;6.18;3.00;;;16.70;46.00;;;;;;6203808;28;20369;-79
2021/04/24 02:39:33;;;;;;;5.07;2.40;;;16.70;45.90;;;;;;6203518;28;20022;-78
2021/04/24 02:42:34;;;;;;;4.60;2.60;;;16.70;46.00;;;;;;6208725;28;20045;-78
2021/04/24 02:45:35;;;;;;;3.50;2.33;;;16.70;46.10;;;;;;6226227;28;20041;-79
2021/04/24 02:48:36;;;;;;;5.82;3.10;;;16.70;46.20;;;;;;6225562;28;20048;-78
2021/04/24 02:51:37;;;;;;;7.63;3.10;;;16.70;46.30;;;;;;6226178;28;20053;-79
2021/04/24 02:54:39;;;;;;;8.30;3.35;;;16.70;46.50;;;;;;6225423;28;20021;-78
2021/04/24 02:57:40;;;;;;;4.53;2.45;;;16.70;46.60;;;;;;6225719;28;20404;-78
2021/04/24 03:00:42;;;;;;;6.00;3.38;;;16.60;46.60;;;;;;6208744;28;20026;-78
2021/04/24 03:03:43;;;;;;;7.38;3.30;;;16.60;46.70;;;;;;6196608;28;20088;-78
2021/04/24 03:06:45;;;;;;;8.45;3.60;;;16.60;46.70;;;;;;6201111;28;20034;-78
2021/04/24 03:09:46;;;;;;;7.38;3.60;;;16.60;46.80;;;;;;6185614;28;20110;-78
2021/04/24 03:12:47;;;;;;;7.45;3.08;;;16.60;46.90;;;;;;6202897;28;20037;-78
2021/04/24 03:15:48;;;;;;;6.25;3.60;;;16.60;46.80;;;;;;6202807;28;20488;-79
2021/04/24 03:18:49;;;;;;;7.15;3.63;;;16.50;46.80;;;;;;6201462;28;20113;-78
2021/04/24 03:21:50;;;;;;;4.25;3.03;;;16.50;46.70;;;;;;6210812;28;20034;-78
2021/04/24 03:24:52;;;;;;;6.15;3.17;;;16.60;46.60;;;;;;6199988;28;20037;-78
2021/04/24 03:27:53;;;;;;;5.97;3.33;;;16.50;46.50;;;;;;6219875;28;20068;-78
2021/04/24 03:30:54;;;;;;;5.45;3.13;;;16.50;46.30;;;;;;6224349;28;20042;-78
2021/04/24 03:33:56;;;;;;;5.53;3.20;;;16.50;46.40;;;;;;6223924;28;20342;-78
2021/04/24 03:36:57;;;;;;;9.18;3.17;;;16.50;46.40;;;;;;6225098;28;20053;-78
2021/04/24 03:39:59;;;;;;;7.30;3.28;;;16.50;46.30;;;;;;6207766;28;20377;-79
2021/04/24 03:43:01;;;;;;;4.70;2.50;;;16.40;46.30;;;;;;6225349;28;20329;-78
2021/04/24 03:46:03;;;;;;;7.85;3.17;;;16.40;46.30;;;;;;6225103;28;20456;-78
2021/04/24 03:49:04;;;;;;;5.53;2.92;;;16.40;46.50;;;;;;6213627;28;20026;-78
2021/04/24 03:52:06;;;;;;;5.97;2.95;;;16.40;46.60;;;;;;6200772;28;20072;-78
2021/04/24 03:55:07;;;;;;;4.82;2.88;;;16.40;46.70;;;;;;6184625;28;20030;-78
2021/04/24 03:58:08;;;;;;;4.95;2.83;;;16.30;46.80;;;;;;6201656;28;20080;-79
2021/04/24 04:01:09;;;;;;;7.05;2.95;;;16.30;46.90;;;;;;6201851;28;20027;-80
2021/04/24 04:04:10;;;;;;;5.47;2.85;;;16.20;47.00;;;;;;6183423;28;20034;-78
2021/04/24 04:07:11;;;;;;;6.38;3.60;;;16.20;47.20;;;;;;6184090;28;20030;-78
2021/04/24 04:10:15;;;;;;;6.53;3.03;;;16.10;47.30;;;;;;6206382;28;20515;-79
2021/04/24 04:13:16;;;;;;;6.88;2.92;;;16.10;47.40;;;;;;6207437;28;20026;-78
2021/04/24 04:16:17;;;;;;;8.30;2.83;;;16.00;47.30;;;;;;6222441;28;20161;-78
2021/04/24 04:19:18;;;;;;;6.47;3.22;;;16.00;47.30;;;;;;6223193;28;20382;-78
2021/04/24 04:22:19;;;;;;;7.25;3.70;;;16.00;47.40;;;;;;6223540;28;20033;-79
2021/04/24 04:25:20;;;;;;;8.05;3.90;;;16.00;47.50;;;;;;6206955;28;20128;-79
2021/04/24 04:28:21;;;;;;;6.60;3.80;;;16.00;47.70;;;;;;6223591;28;20038;-79
2021/04/24 04:31:22;;;;;;;6.30;3.50;;;16.00;47.90;;;;;;6222256;28;20167;-78
2021/04/24 04:34:23;;;;;;;6.40;3.83;;;15.90;48.00;;;;;;6201323;28;20037;-79
2021/04/24 04:37:24;;;;;;;5.60;3.25;;;15.90;48.20;;;;;;6222716;28;20053;-78
2021/04/24 04:40:26;;;;;;;5.25;3.25;;;15.80;48.50;;;;;;6223847;28;20034;-78
2021/04/24 04:43:27;;;;;;;10.35;4.28;;;15.70;48.70;;;;;;6223500;28;20041;-79
2021/04/24 04:46:29;;;;;;;8.40;3.92;;;15.70;48.90;;;;;;6189040;28;20469;-78
2021/04/24 04:49:30;;;;;;;5.47;3.50;;;15.70;49.10;;;;;;6213108;28;20083;-78
2021/04/24 04:52:31;;;;;;;5.80;3.70;;;15.60;49.30;;;;;;6221094;28;20530;-78
2021/04/24 04:55:32;;;;;;;4.07;3.08;;;15.60;49.50;;;;;;6206799;28;20034;-79
2021/04/24 04:58:33;;;;;;;6.13;3.60;;;15.50;49.60;;;;;;6212648;28;20033;-78
2021/04/24 05:01:35;;;;;;;8.32;3.45;;;15.40;49.70;;;;;;6200527;28;20030;-79
2021/04/24 05:04:36;;;;;;;8.00;3.47;;;15.40;49.90;;;;;;6217304;28;20025;-79
2021/04/24 05:07:37;;;;;;;6.10;3.75;;;15.40;50.10;;;;;;6223011;28;20041;-79
2021/04/24 05:10:38;;;;;;;6.65;3.80;;;15.30;50.30;;;;;;6206589;28;20026;-79
2021/04/24 05:13:39;;;;;;;11.70;4.25;;;15.30;50.40;;;;;;6223489;28;20026;-78
2021/04/24 05:16:40;;;;;;;5.10;3.40;;;15.30;50.40;;;;;;6226333;28;20068;-78
2021/04/24 05:19:45;;;;;;;8.20;3.47;;;15.30;50.50;;;;;;6211243;28;20030;-79
2021/04/24 05:22:47;;;;;;;6.93;3.58;;;15.30;50.40;;;;;;6211305;28;20040;-79
2021/04/24 05:25:48;;;;;;;7.53;3.38;;;15.30;50.30;;;;;;6223240;28;20109;-78
2021/04/24 05:28:49;;;;;;;9.27;3.97;;;15.30;50.20;;;;;;6224339;28;20014;-78
2021/04/24 05:31:50;;;;;;;5.40;3.08;;;15.30;50.10;;;;;;6206229;28;20064;-79
2021/04/24 05:34:52;;;;;;;6.65;3.05;;;15.30;50.00;;;;;;6186377;28;20030;-79
2021/04/24 05:37:53;;;;;;;6.75;3.60;;;15.40;49.90;;;;;;6189319;28;20129;-79
2021/04/24 05:40:55;;;;;;;6.25;3.17;;;15.40;49.90;;;;;;6205830;28;20017;-80
2021/04/24 05:43:57;;;;;;;7.22;3.35;;;15.40;49.80;;;;;;6186482;28;20018;-79
2021/04/24 05:46:58;;;;;;;7.38;3.47;;;15.40;49.70;;;;;;6203970;28;20077;-78
2021/04/24 05:49:59;;;;;;;6.10;3.67;;;15.50;49.60;;;;;;6204666;28;20738;-79
2021/04/24 05:53:00;;;;;;;10.18;3.47;;;15.50;49.60;;;;;;6203744;28;20022;-78
2021/04/24 05:56:05;;;;;;;7.82;4.25;;;15.50;49.50;;;;;;6203941;28;20026;-79
2021/04/24 05:59:06;;;;;;;6.43;3.45;;;15.50;49.50;;;;;;6222180;28;20109;-79
2021/04/24 06:02:07;;;;;;;6.47;3.30;;;15.60;49.40;;;;;;6190084;28;20420;-79
2021/04/24 06:05:09;;;;;;;4.78;3.05;;;15.60;49.10;;;;;;6213203;28;20475;-80
2021/04/24 06:08:10;;;;;;;5.88;3.30;;;15.60;49.10;;;;;;6192816;28;20062;-80
2021/04/24 06:11:15;;;;;;;5.78;3.30;;;15.70;49.00;;;;;;6193225;28;20022;-78
2021/04/24 06:14:16;;;;;;;6.85;3.40;;;15.70;48.90;;;;;;6211502;28;20029;-80
2021/04/24 06:17:17;;;;;;;6.03;3.72;;;15.60;49.40;;;;;;6196645;28;20036;-79
2021/04/24 06:20:18;;;;;;;7.97;4.40;;;15.60;48.90;;;;;;6204191;28;20064;-80
2021/04/24 06:23:19;;;;;;;5.40;3.50;;;15.70;48.90;;;;;;6208021;28;20096;-81
2021/04/24 06:26:21;;;;;;;6.57;3.53;;;15.80;49.00;;;;;;6192982;28;20125;-79
2021/04/24 06:29:22;;;;;;;7.85;4.20;;;15.90;49.00;;;;;;6203598;28;20488;-80
2021/04/24 06:32:24;;;;;;;6.85;3.40;;;15.90;49.00;;;;;;6182140;28;20033;-78
2021/04/24 06:35:25;;;;;;;9.45;4.10;;;16.00;49.00;;;;;;6203119;28;20080;-78
2021/04/24 06:38:38;;;;;;;5.60;3.60;;;16.10;48.90;;;;;;6206781;28;20034;-79
2021/04/24 06:41:50;;;;;;;7.88;3.78;;;16.10;48.80;;;;;;6190763;28;20066;-79
2021/04/24 06:44:56;;;;;;;6.32;3.67;;;16.20;48.70;;;;;;6202271;28;20026;-78
2021/04/24 06:48:04;;;;;;;7.60;3.83;;;16.20;48.60;;;;;;6199943;28;20081;-79
2021/04/24 06:51:11;;;;;;;7.75;3.50;;;16.30;48.50;;;;;;6179184;28;20168;-80
2021/04/24 06:54:22;;;;;;;5.32;3.35;;;16.40;48.30;;;;;;6163742;28;20397;-80
2021/04/24 06:57:25;;;;;;;6.50;3.40;;;16.40;48.00;;;;;;6205852;28;20385;-79
2021/04/24 07:00:27;;;;;;;9.05;3.53;;;16.60;47.60;;;;;;6200720;28;20029;-78
2021/04/24 07:03:28;;;;;;;5.55;3.10;;;16.70;46.90;;;;;;6203841;28;20412;-82
2021/04/24 07:06:30;;;;;;;8.90;3.95;;;16.70;46.80;;;;;;6182080;28;20068;-82
2021/04/24 07:09:31;;;;;;;4.43;3.20;;;16.80;46.60;;;;;;6176756;28;20041;-81
2021/04/24 07:12:34;;;;;;;8.10;3.20;;;17.00;46.50;;;;;;6205002;28;20087;-81
2021/04/24 07:15:36;;;;;;;6.65;2.90;;;17.10;46.10;;;;;;6201686;28;20345;-82
2021/04/24 07:18:39;;;;;;;5.65;3.08;;;17.20;45.80;;;;;;6199781;28;20149;-81
2021/04/24 07:21:40;;;;;;;8.52;3.55;;;17.40;45.40;;;;;;6201029;28;20057;-81
2021/04/24 07:24:45;;;;;;;5.20;2.97;;;17.50;45.00;;;;;;6204634;28;20548;-81
2021/04/24 07:27:46;;;;;;;8.60;3.42;;;17.50;44.80;;;;;;6209255;28;20045;-81
2021/04/24 07:30:48;;;;;;;12.20;3.10;;;17.70;44.70;;;;;;6218696;28;20046;-81
2021/04/24 07:33:49;;;;;;;4.78;2.88;;;17.70;44.30;;;;;;6219046;28;20465;-81
2021/04/24 07:36:50;;;;;;;7.15;3.60;;;17.90;44.20;;;;;;6219023;28;20030;-81
2021/04/24 07:39:52;;;;;;;7.80;3.70;;;18.00;44.30;;;;;;6187983;28;20121;-82
2021/04/24 07:42:54;;;;;;;7.68;3.83;;;18.10;43.80;;;;;;6197377;28;20034;-83
2021/04/24 07:45:55;;;;;;;4.63;3.10;;;18.20;43.70;;;;;;6225073;28;20484;-83
2021/04/24 07:48:56;;;;;;;4.30;3.28;;;18.40;43.70;;;;;;6224850;28;20113;-81
2021/04/24 07:51:57;;;;;;;7.50;3.47;;;18.50;43.40;;;;;;6219495;28;20069;-81
2021/04/24 07:54:58;;;;;;;7.35;3.28;;;18.60;43.20;;;;;;6185585;28;20041;-81
2021/04/24 07:57:59;;;;;;;3.92;2.70;;;18.80;42.80;;;;;;6201742;28;20349;-81
2021/04/24 08:01:03;;;;;;;5.05;2.60;;;18.90;42.70;;;;;;6185098;28;20126;-81
2021/04/24 08:04:05;;;;;;;5.18;2.80;;;19.00;42.20;;;;;;6218593;28;20030;-82
2021/04/24 08:07:07;;;;;;;10.07;2.90;;;19.20;41.60;;;;;;6208609;28;20040;-81
2021/04/24 08:10:09;;;;;;;12.10;2.97;;;19.30;41.20;;;;;;6236164;28;20031;-80
2021/04/24 08:13:10;;;;;;;6.13;2.75;;;19.40;41.30;;;;;;6234984;28;20125;-82
2021/04/24 08:16:12;;;;;;;4.90;3.30;;;19.60;41.00;;;;;;6225271;28;20022;-82
2021/04/24 08:19:13;;;;;;;3.25;2.30;;;19.70;40.20;;;;;;6205231;28;20034;-81
2021/04/24 08:22:14;;;;;;;8.02;2.72;;;19.80;39.40;;;;;;6222260;28;20334;-81
2021/04/24 08:25:16;;;;;;;4.60;2.65;;;19.90;39.00;;;;;;6221744;28;20446;-82
2021/04/24 08:28:17;;;;;;;3.83;2.72;;;20.00;38.80;;;;;;6208395;28;20110;-81
2021/04/24 08:31:19;;;;;;;8.05;3.03;;;20.20;38.40;;;;;;6219869;28;20038;-82
2021/04/24 08:34:24;;;;;;;8.75;2.45;;;20.40;38.20;;;;;;6220507;28;20081;-82
2021/04/24 08:37:25;;;;;;;10.32;2.88;;;20.60;37.80;;;;;;6209775;28;20049;-82
2021/04/24 08:40:26;;;;;;;6.72;2.72;;;20.80;37.40;;;;;;6208936;28;20037;-82
2021/04/24 08:43:27;;;;;;;5.07;3.15;;;21.00;37.30;;;;;;6213349;28;20058;-82
2021/04/24 08:46:29;;;;;;;4.47;2.60;;;21.20;37.20;;;;;;6215362;28;20022;-82
2021/04/24 08:49:30;;;;;;;7.35;2.78;;;21.40;36.80;;;;;;6216983;28;20108;-82
2021/04/24 08:52:41;;;;;;;7.05;4.28;;;21.60;36.20;;;;;;6223428;28;20022;-82
2021/04/24 08:55:42;;;;;;;8.07;3.70;;;21.80;35.70;;;;;;6225507;28;20112;-82
2021/04/24 08:58:43;;;;;;;8.40;4.45;;;21.90;35.10;;;;;;6216455;28;20037;-81
2021/04/24 09:01:54;;;;;;;7.40;3.00;;;22.00;35.20;;;;;;6225227;28;20401;-79
2021/04/24 09:05:09;;;;;;;5.38;3.33;;;22.00;34.50;;;;;;6224983;28;20038;-80
2021/04/24 09:08:23;;;;;;;3.70;2.63;;;22.00;33.90;;;;;;6228131;28;20041;-80
2021/04/24 09:11:32;;;;;;;5.40;2.30;;;22.00;33.70;;;;;;6233018;28;20025;-79
2021/04/24 09:14:50;;;;;;;5.60;2.35;;;22.20;33.60;;;;;;6224977;28;20069;-80
2021/04/24 09:17:58;;;;;;;3.53;2.13;;;22.30;33.20;;;;;;6221121;28;20025;-84
2021/04/24 09:21:05;;;;;;;;;;;22.40;33.10;;;;;;6224601;28;20018;-80
2021/04/24 09:24:46;;;;;;;3.30;1.90;;;22.60;33.00;;;;;;6208948;28;20214;-82
2021/04/24 09:27:59;;;;;;;4.30;2.22;;;22.70;32.60;;;;;;6227678;28;20034;-81
2021/04/24 09:31:26;;;;;;;3.00;2.05;;;22.80;32.10;;;;;;6230210;28;20105;-80
2021/04/24 09:34:40;;;;;;;6.05;3.95;;;22.90;31.90;;;;;;6210687;28;20042;-80
2021/04/24 09:38:01;;;;;;;4.85;2.22;;;23.00;31.70;;;;;;6204120;28;20113;-80
2021/04/24 09:41:17;;;;;;;9.15;2.50;;;23.00;31.80;;;;;;6197087;28;20033;-82
2021/04/24 09:44:29;;;;;;;6.57;3.75;;;23.10;31.80;;;;;;6203453;28;20424;-80
2021/04/24 09:47:47;;;;;;;5.18;2.47;;;23.20;31.60;;;;;;6181659;28;20034;-81
2021/04/24 09:51:12;;;;;;;6.93;2.40;;;23.20;31.40;;;;;;6191846;28;20440;-80
2021/04/24 09:54:37;;;;;;;11.88;2.97;;;23.30;31.60;;;;;;6189844;28;20362;-80
2021/04/24 09:57:48;;;;;;;4.38;2.65;;;23.40;31.40;;;;;;6205456;28;20025;-79
2021/04/24 10:01:23;;;;;;;9.25;2.90;;;23.50;31.10;;;;;;6204680;28;20034;-80
2021/04/24 10:04:40;;;;;;;6.47;2.90;;;23.70;31.00;;;;;;6119335;29;20047;-80
2021/04/24 10:07:59;;;;;;;4.47;2.50;;;23.90;30.60;;;;;;6105504;29;20102;-83
2021/04/24 10:11:10;;;;;;;3.13;2.28;;;24.00;30.30;;;;;;6087174;29;20032;-79
2021/04/24 10:14:43;;;;;;;4.07;2.47;;;24.20;30.00;;;;;;6085402;29;20028;-80
2021/04/24 10:17:54;;;;;;;4.57;2.20;;;24.30;29.80;;;;;;6042247;29;20154;-81
2021/04/24 10:21:09;;;;;;;4.15;2.50;;;24.50;29.50;;;;;;6029343;29;20057;-80
2021/04/24 10:24:28;;;;;;;4.93;2.70;;;24.40;28.90;;;;;;6043170;29;20033;-80
2021/04/24 10:27:42;;;;;;;16.02;5.07;;;24.60;29.00;;;;;;6044276;29;20128;-82
2021/04/24 10:31:07;;;;;;;4.38;2.70;;;24.70;29.10;;;;;;6060752;29;20094;-81
2021/04/24 10:34:21;;;;;;;7.00;2.55;;;24.80;29.00;;;;;;6043916;29;20041;-82
2021/04/24 10:37:33;;;;;;;3.58;2.45;;;24.90;28.80;;;;;;6045092;29;20396;-81
2021/04/24 10:40:48;;;;;;;4.28;2.60;;;25.00;28.70;;;;;;6087942;28;20039;-79
2021/04/24 10:44:34;;;;;;;4.75;2.03;;;25.10;28.60;;;;;;6163717;28;20042;-83
2021/04/24 10:48:06;;;;;;;3.13;2.40;;;25.10;28.40;;;;;;6082701;29;20048;-79
2021/04/24 10:51:15;;;;;;;13.07;5.55;;;25.50;28.10;;;;;;6066436;29;20420;-78
2021/04/24 10:54:29;;;;;;;4.45;2.50;;;26.10;27.50;;;;;;6086545;29;20411;-81
2021/04/24 10:57:53;;;;;;;3.47;2.58;;;26.90;27.00;;;;;;6097906;29;20090;-81
2021/04/24 11:01:02;;;;;;;5.43;2.38;;;27.40;26.50;;;;;;6113160;29;20348;-81
2021/04/24 11:04:48;;;;;;;3.60;2.10;;;27.90;26.00;;;;;;6127553;29;20046;-81
2021/04/24 11:08:22;;;;;;;6.13;2.47;;;28.40;25.80;;;;;;6129543;29;20035;-81
2021/04/24 11:11:28;;;;;;;4.70;2.08;;;28.80;25.30;;;;;;6122806;29;20115;-82
2021/04/24 11:14:33;;;;;;;6.10;2.42;;;29.10;25.00;;;;;;6129381;29;20048;-81
2021/04/24 11:17:47;;;;;;;4.30;2.40;;;29.30;24.70;;;;;;6117980;29;20044;-82
2021/04/24 11:21:11;;;;;;;;;;;29.50;24.30;;;;;;6130047;29;20098;-81
2021/04/24 11:24:12;;;;;;;3.20;2.28;;;29.90;23.70;;;;;;6129270;29;20009;-80
2021/04/24 11:27:13;;;;;;;3.38;2.17;;;30.20;23.40;;;;;;6129211;29;20138;-80
2021/04/24 11:30:50;;;;;;;2.88;2.13;;;30.50;23.80;;;;;;6113247;29;20043;-80
2021/04/24 11:33:52;;;;;;;3.80;2.20;;;30.80;22.80;;;;;;6107672;29;20403;-81
2021/04/24 11:37:18;;;;;;;5.00;1.90;;;31.00;22.20;;;;;;6165550;28;20084;-80
2021/04/24 11:40:20;;;;;;;3.42;2.15;;;31.10;22.20;;;;;;6201822;28;20029;-80
2021/04/24 11:43:31;;;;;;;2.15;1.83;;;31.20;22.00;;;;;;6201135;28;20069;-83
2021/04/24 11:46:45;;;;;;;2.97;1.90;;;31.20;21.90;;;;;;6199701;28;20030;-84
2021/04/24 11:50:06;;;;;;;2.92;2.00;;;31.30;22.10;;;;;;6190673;28;20037;-83
2021/04/24 11:53:20;;;;;;;3.20;1.60;;;31.50;21.40;;;;;;6191580;28;20045;-82
2021/04/24 11:56:40;;;;;;;3.30;2.10;;;31.70;21.00;;;;;;6193356;28;20026;-84
2021/04/24 12:00:01;;;;;;;3.25;1.70;;;31.90;20.40;;;;;;6198395;28;20045;-83
2021/04/24 12:03:08;;;;;;;5.70;2.20;;;32.10;20.20;;;;;;6200444;28;20123;-84
2021/04/24 12:06:32;;;;;;;3.80;1.90;;;32.30;19.80;;;;;;6204742;28;20041;-83
2021/04/24 12:10:01;;;;;;;2.70;1.70;;;32.40;19.30;;;;;;6183792;28;20026;-83
2021/04/24 12:13:12;;;;;;;4.07;1.88;;;32.50;19.10;;;;;;6191842;28;20089;-83
2021/04/24 12:16:44;;;;;;;1.70;1.60;;;32.30;19.10;;;;;;6205589;28;20041;-83
2021/04/24 12:19:52;;;;;;;2.95;1.90;;;32.50;18.70;;;;;;6213495;28;20531;-84
2021/04/24 12:23:00;;;;;;;1.77;1.60;;;32.70;18.30;;;;;;6178528;28;20036;-85
2021/04/24 12:26:04;;;;;;;3.10;1.57;;;32.70;18.30;;;;;;6188211;28;20535;-81
2021/04/24 12:29:10;;;;;;;3.75;2.35;;;32.80;18.20;;;;;;6184697;28;20295;-83
2021/04/24 12:32:19;;;;;;;8.15;2.00;;;32.90;18.20;;;;;;6194381;28;20034;-83
2021/04/24 12:35:39;;;;;;;2.85;1.80;;;33.20;18.00;;;;;;6179382;28;20042;-84
2021/04/24 12:38:46;;;;;;;3.03;1.73;;;33.80;17.40;;;;;;6193081;28;20098;-83
2021/04/24 12:41:50;;;;;;;2.55;1.77;;;34.10;17.20;;;;;;6189403;28;20036;-83
2021/04/24 12:45:00;;;;;;;2.85;1.80;;;34.20;17.10;;;;;;6209472;28;20037;-83
2021/04/24 12:48:36;;;;;;;1.63;1.30;;;34.40;16.70;;;;;;6191838;28;20046;-83
2021/04/24 12:51:41;;;;;;;2.17;1.33;;;34.80;16.60;;;;;;6179290;28;20026;-82
2021/04/24 12:55:08;;;;;;;2.28;1.63;;;35.50;16.10;;;;;;6196312;28;20472;-82
2021/04/24 12:58:15;;;;;;;5.15;1.92;;;36.10;15.90;;;;;;6187925;28;20048;-83
2021/04/24 13:01:24;;;;;;;5.80;1.50;;;36.70;15.40;;;;;;6193364;28;20041;-84
2021/04/24 13:04:25;;;;;;;2.40;1.43;;;37.40;15.10;;;;;;6205965;28;20121;-83
2021/04/24 13:07:28;;;;;;;2.03;1.42;;;37.80;14.70;;;;;;6208318;28;20368;-82
2021/04/24 13:10:29;;;;;;;2.80;1.63;;;38.50;14.30;;;;;;6208536;28;20045;-82
2021/04/24 13:13:32;;;;;;;2.83;1.80;;;39.20;14.10;;;;;;6168931;28;20157;-82
2021/04/24 13:16:33;;;;;;;2.03;1.50;;;39.80;13.70;;;;;;6173339;28;20045;-82
2021/04/24 13:19:46;;;;;;;2.53;1.60;;;40.40;13.40;;;;;;6213307;28;20061;-82
2021/04/24 13:22:48;;;;;;;2.58;1.48;;;40.70;13.10;;;;;;6186698;28;20030;-83
2021/04/24 13:25:49;;;;;;;1.90;1.40;;;41.10;12.90;;;;;;6180897;28;20153;-81
2021/04/24 13:28:50;;;;;;;2.72;1.60;;;41.60;12.70;;;;;;6195628;28;20038;-79
2021/04/24 13:31:59;;;;;;;3.10;1.42;;;41.80;12.40;;;;;;6202846;28;20049;-83
2021/04/24 13:35:02;;;;;;;1.70;1.60;;;42.10;12.40;;;;;;6224500;28;20117;-82
2021/04/24 13:38:06;;;;;;;3.80;1.50;;;42.40;12.20;;;;;;6189118;28;20465;-80
2021/04/24 13:41:13;;;;;;;1.80;1.50;;;42.50;12.10;;;;;;6195028;28;20377;-81
2021/04/24 13:44:16;;;;;;;3.33;1.70;;;42.60;11.80;;;;;;6200707;28;20039;-84
2021/04/24 13:47:23;;;;;;;4.13;1.75;;;42.50;11.90;;;;;;6192662;28;20156;-83
2021/04/24 13:50:29;;;;;;;;;;;42.40;12.00;;;;;;6195841;28;20057;-84
2021/04/24 13:53:30;;;;;;;4.05;2.00;;;42.50;11.90;;;;;;6212990;28;20441;-84
2021/04/24 13:56:31;;;;;;;3.63;1.70;;;42.40;12.00;;;;;;6200856;28;20040;-83
2021/04/24 13:59:32;;;;;;;2.13;1.55;;;42.50;12.00;;;;;;6192866;28;20337;-80
2021/04/24 14:02:34;;;;;;;4.03;1.75;;;42.70;11.90;;;;;;6206604;28;20027;-84
2021/04/24 14:05:35;;;;;;;1.80;1.45;;;42.80;11.90;;;;;;6193873;28;20037;-83
2021/04/24 14:08:37;;;;;;;7.43;1.70;;;43.10;11.70;;;;;;6190033;28;20050;-84
2021/04/24 14:11:39;;;;;;;3.55;1.40;;;42.90;11.30;;;;;;6226262;28;20022;-82
2021/04/24 14:14:41;;;;;;;1.95;1.50;;;42.50;11.50;;;;;;6188824;28;20033;-84
2021/04/24 14:17:43;;;;;;;2.95;1.70;;;42.40;11.70;;;;;;6204754;28;20041;-83
2021/04/24 14:20:45;;;;;;;2.30;1.70;;;42.30;11.40;;;;;;6203634;28;20045;-83
2021/04/24 14:23:46;;;;;;;2.15;1.40;;;41.80;11.60;;;;;;6236093;28;20030;-84
2021/04/24 14:26:47;;;;;;;4.15;1.73;;;40.80;12.20;;;;;;6226198;28;20071;-84
2021/04/24 14:29:48;;;;;;;4.60;2.03;;;39.40;12.90;;;;;;6197400;28;20050;-87
2021/04/24 14:32:57;;;;;;;2.45;1.52;;;38.10;13.60;;;;;;6211408;28;20121;-85
2021/04/24 14:36:03;;;;;;;3.30;2.03;;;36.90;14.30;;;;;;6217775;28;20026;-81
2021/04/24 14:39:07;;;;;;;2.42;1.80;;;35.80;14.80;;;;;;6209965;28;20124;-83
2021/04/24 14:42:09;;;;;;;3.65;1.98;;;34.90;15.40;;;;;;6225007;28;20030;-84
2021/04/24 14:45:11;;;;;;;2.25;1.80;;;33.70;15.80;;;;;;6220113;28;20125;-84
2021/04/24 14:48:12;;;;;;;1.80;1.55;;;33.00;16.50;;;;;;6209471;28;20053;-84
2021/04/24 14:51:17;;;;;;;3.83;1.70;;;32.20;17.00;;;;;;6197375;28;20053;-83
2021/04/24 14:54:18;;;;;;;2.80;1.70;;;31.60;17.50;;;;;;6209257;28;20037;-83
2021/04/24 14:57:21;;;;;;;3.10;1.52;;;31.20;18.00;;;;;;6209772;28;20022;-82
2021/04/24 15:00:23;;;;;;;1.98;1.60;;;30.70;18.20;;;;;;6212040;28;20049;-83
2021/04/24 15:03:27;;;;;;;3.67;2.10;;;30.30;18.50;;;;;;6191210;28;20034;-83
2021/04/24 15:06:28;;;;;;;3.08;1.80;;;30.00;18.90;;;;;;6209674;28;20038;-84
2021/04/24 15:09:29;;;;;;;2.58;1.67;;;29.70;19.20;;;;;;6216784;28;20030;-82
2021/04/24 15:12:30;;;;;;;1.75;1.50;;;29.40;19.50;;;;;;6207364;28;20069;-83
2021/04/24 15:15:32;;;;;;;5.57;1.90;;;29.20;19.80;;;;;;6200161;28;20106;-83
2021/04/24 15:18:34;;;;;;;2.72;1.58;;;29.00;20.10;;;;;;6218700;28;20567;-84
2021/04/24 15:21:35;;;;;;;1.98;1.50;;;28.70;20.20;;;;;;6216504;28;20027;-84
2021/04/24 15:24:40;;;;;;;7.85;1.95;;;28.60;20.40;;;;;;6215611;28;20022;-82
2021/04/24 15:27:42;;;;;;;3.75;1.85;;;28.60;20.60;;;;;;6210132;28;20526;-83
2021/04/24 15:30:44;;;;;;;3.35;1.38;;;28.50;20.60;;;;;;6214406;28;20097;-84
2021/04/24 15:33:45;;;;;;;2.97;1.40;;;28.50;20.50;;;;;;6205016;28;20042;-84
2021/04/24 15:36:50;;;;;;;4.15;1.80;;;28.60;20.60;;;;;;6223735;28;20026;-84
2021/04/24 15:39:53;;;;;;;6.22;1.70;;;28.80;20.70;;;;;;6211840;28;20034;-84
2021/04/24 15:42:54;;;;;;;2.55;1.58;;;29.80;20.30;;;;;;6190373;28;20056;-83
2021/04/24 15:45:55;;;;;;;4.57;1.50;;;31.20;19.10;;;;;;6202281;28;20492;-84
2021/04/24 15:48:57;;;;;;;2.72;1.88;;;32.40;18.20;;;;;;6211984;28;20026;-84
2021/04/24 15:51:58;;;;;;;2.95;1.70;;;33.80;17.40;;;;;;6191373;28;20064;-83
2021/04/24 15:55:03;;;;;;;1.70;1.50;;;34.90;16.70;;;;;;6186228;28;20162;-83
2021/04/24 15:58:05;;;;;;;2.30;1.67;;;35.90;16.00;;;;;;6192362;28;20030;-84
2021/04/24 16:01:07;;;;;;;3.38;1.50;;;36.30;15.60;;;;;;6207999;28;20076;-83
2021/04/24 16:04:08;;;;;;;1.50;1.40;;;36.70;15.50;;;;;;6209850;28;20037;-83
2021/04/24 16:07:09;;;;;;;4.10;2.03;;;37.20;15.20;;;;;;6204502;28;20095;-82